createdAt,value
2023-04-02T00:00:26.087Z,8.95
2023-04-02T00:03:55.116Z,9.01
2023-04-02T00:07:31.562Z,9.06
2023-04-02T00:10:37.971Z,9.15
2023-04-02T00:13:47.031Z,9.20
2023-04-02T00:16:53.217Z,9.03
2023-04-02T00:20:03.546Z,8.87
2023-04-02T00:23:17.059Z,8.86
2023-04-02T00:26:45.156Z,8.75
2023-04-02T00:29:56.505Z,9.00
2023-04-02T00:33:05.784Z,9.04
2023-04-02T00:36:21.488Z,9.10
2023-04-02T00:39:32.941Z,9.14
2023-04-02T00:42:42.381Z,9.22
2023-04-02T00:45:56.208Z,9.10
2023-04-02T00:49:10.935Z,9.08
2023-04-02T00:52:23.047Z,9.01
2023-04-02T00:55:36.952Z,9.00
2023-04-02T00:58:45.548Z,8.96
2023-04-02T01:02:03.648Z,9.06
2023-04-02T01:05:17.164Z,9.17
2023-04-02T01:08:37.548Z,9.10
2023-04-02T01:11:44.822Z,8.97
2023-04-02T01:14:52.284Z,8.98
2023-04-02T01:18:20.248Z,9.01
2023-04-02T01:21:30.957Z,9.00
2023-04-02T01:24:41.096Z,8.96
2023-04-02T01:27:54.332Z,8.96
2023-04-02T01:31:03.428Z,8.99
2023-04-02T01:34:11.593Z,9.01
2023-04-02T01:37:24.380Z,9.02
2023-04-02T01:40:37.615Z,8.98
2023-04-02T01:43:48.337Z,8.99
2023-04-02T01:46:57.554Z,8.97
2023-04-02T01:50:14.684Z,8.91
2023-04-02T01:53:23.934Z,8.98
2023-04-02T01:56:32.525Z,9.02
2023-04-02T01:59:40.637Z,9.06
2023-04-02T02:02:50.795Z,9.04
2023-04-02T02:06:00.592Z,9.00
2023-04-02T02:09:08.997Z,9.04
2023-04-02T02:12:17.021Z,9.07
2023-04-02T02:15:24.947Z,9.08
2023-04-02T02:18:37.342Z,9.00
2023-04-02T02:21:46.552Z,9.01
2023-04-02T02:24:56.466Z,8.95
2023-04-02T02:28:24.267Z,8.98
2023-04-02T02:31:34.095Z,8.89
2023-04-02T02:34:44.079Z,8.89
2023-04-02T02:37:59.826Z,8.78
2023-04-02T02:41:16.887Z,8.84
2023-04-02T02:44:28.293Z,8.82
2023-04-02T02:47:38.140Z,8.75
2023-04-02T02:50:47.191Z,8.68
2023-04-02T02:53:55.115Z,8.66
2023-04-02T02:57:08.537Z,8.70
2023-04-02T03:00:17.453Z,8.75
2023-04-02T03:03:27.478Z,8.73
2023-04-02T03:06:37.468Z,8.73
2023-04-02T03:10:07.177Z,8.73
2023-04-02T03:13:26.246Z,8.68
2023-04-02T03:16:39.900Z,8.63
2023-04-02T03:20:04.584Z,8.57
2023-04-02T03:23:20.513Z,8.53
2023-04-02T03:26:38.022Z,8.51
2023-04-02T03:30:05.529Z,8.52
2023-04-02T03:33:32.436Z,8.59
2023-04-02T03:36:48.367Z,8.61
2023-04-02T03:40:04.852Z,8.63
2023-04-02T03:43:18.028Z,8.64
2023-04-02T03:46:26.535Z,8.58
2023-04-02T03:49:36.354Z,8.50
2023-04-02T03:52:45.669Z,8.55
2023-04-02T03:55:54.091Z,8.44
2023-04-02T03:59:07.865Z,8.48
2023-04-02T04:02:20.793Z,8.44
2023-04-02T04:05:32.783Z,8.38
2023-04-02T04:08:56.142Z,8.47
2023-04-02T04:12:25.337Z,8.49
2023-04-02T04:15:32.662Z,8.64
2023-04-02T04:18:46.421Z,8.72
2023-04-02T04:21:59.263Z,8.73
2023-04-02T04:25:08.095Z,8.67
2023-04-02T04:28:28.549Z,8.62
2023-04-02T04:31:57.624Z,8.54
2023-04-02T04:35:10.108Z,8.50
2023-04-02T04:38:23.936Z,8.56
2023-04-02T04:41:36.353Z,8.46
2023-04-02T04:45:02.336Z,8.48
2023-04-02T04:48:18.597Z,8.46
2023-04-02T04:51:36.203Z,8.40
2023-04-02T04:54:44.235Z,8.32
2023-04-02T04:57:51.978Z,8.41
2023-04-02T05:01:06.946Z,8.49
2023-04-02T05:04:40.672Z,8.58
2023-04-02T05:07:54.213Z,8.70
2023-04-02T05:11:05.999Z,8.85
2023-04-02T05:14:30.107Z,9.04
2023-04-02T05:17:42.729Z,9.14
2023-04-02T05:21:01.258Z,9.28
2023-04-02T05:24:28.683Z,9.47
2023-04-02T05:27:48.044Z,9.59
2023-04-02T05:31:02.596Z,9.76
2023-04-02T05:34:10.249Z,9.80
2023-04-02T05:37:20.282Z,9.86
2023-04-02T05:40:34.096Z,9.76
2023-04-02T05:43:42.168Z,9.95
2023-04-02T05:47:04.343Z,10.13
2023-04-02T05:50:24.972Z,10.17
2023-04-02T05:53:38.368Z,10.37
2023-04-02T05:56:49.799Z,10.48
2023-04-02T05:59:58.776Z,10.30
2023-04-02T06:03:18.165Z,10.29
2023-04-02T06:06:48.038Z,10.38
2023-04-02T06:10:08.577Z,10.52
2023-04-02T06:13:18.388Z,10.65
2023-04-02T06:16:27.076Z,10.76
2023-04-02T06:19:39.517Z,10.91
2023-04-02T06:22:54.457Z,11.11
2023-04-02T06:26:02.059Z,11.18
2023-04-02T06:29:14.509Z,11.31
2023-04-02T06:32:28.116Z,11.63
2023-04-02T06:35:38.133Z,11.80
2023-04-02T06:38:49.752Z,12.53
2023-04-02T06:42:05.773Z,12.91
2023-04-02T06:45:30.951Z,13.65
2023-04-02T06:48:40.441Z,12.81
2023-04-02T06:51:50.993Z,13.78
2023-04-02T06:55:00.544Z,14.53
2023-04-02T06:58:14.782Z,14.73
2023-04-02T07:01:25.538Z,14.40
2023-04-02T07:04:36.404Z,12.85
2023-04-02T07:07:46.389Z,13.28
2023-04-02T07:10:55.380Z,13.48
2023-04-02T07:14:07.357Z,13.44
2023-04-02T07:17:17.813Z,13.87
2023-04-02T07:20:28.064Z,14.45
2023-04-02T07:23:37.246Z,14.23
2023-04-02T07:26:42.458Z,13.63
2023-04-02T07:29:52.274Z,13.27
2023-04-02T07:32:59.402Z,12.93
2023-04-02T07:36:08.074Z,12.88
2023-04-02T07:39:14.718Z,13.18
2023-04-02T07:42:22.209Z,13.33
2023-04-02T07:45:28.039Z,13.82
2023-04-02T07:48:34.994Z,14.22
2023-04-02T07:51:43.312Z,13.29
2023-04-02T07:54:52.538Z,13.53
2023-04-02T07:58:00.614Z,13.94
2023-04-02T08:01:16.539Z,13.80
2023-04-02T08:04:24.755Z,13.68
2023-04-02T08:07:33.697Z,14.04
2023-04-02T08:10:40.399Z,14.25
2023-04-02T08:13:46.932Z,15.22
2023-04-02T08:16:56.403Z,15.39
2023-04-02T08:20:03.336Z,14.41
2023-04-02T08:23:19.133Z,13.71
2023-04-02T08:26:26.541Z,13.72
2023-04-02T08:29:35.767Z,13.66
2023-04-02T08:32:43.608Z,13.79
2023-04-02T08:35:53.248Z,14.10
2023-04-02T08:39:01.678Z,14.15
2023-04-02T08:42:30.725Z,14.54
2023-04-02T08:45:43.798Z,16.73
2023-04-02T08:49:00.044Z,18.87
2023-04-02T08:52:08.089Z,19.20
2023-04-02T08:55:36.949Z,19.64
2023-04-02T08:58:45.172Z,19.48
2023-04-02T09:01:58.126Z,19.58
2023-04-02T09:05:09.224Z,20.09
2023-04-02T09:08:18.098Z,17.43
2023-04-02T09:11:23.491Z,16.50
2023-04-02T09:14:46.411Z,15.68
2023-04-02T09:18:00.037Z,15.97
2023-04-02T09:21:14.848Z,15.70
2023-04-02T09:24:22.754Z,15.50
2023-04-02T09:27:33.903Z,15.18
2023-04-02T09:30:53.335Z,15.37
2023-04-02T09:33:58.438Z,15.42
2023-04-02T09:37:15.274Z,14.64
2023-04-02T09:40:26.497Z,14.74
2023-04-02T09:43:40.814Z,14.67
2023-04-02T09:46:49.508Z,14.57
2023-04-02T09:49:56.663Z,14.34
2023-04-02T09:53:27.463Z,14.85
2023-04-02T09:56:40.472Z,15.18
2023-04-02T10:00:14.652Z,14.91
2023-04-02T10:03:30.831Z,14.99
2023-04-02T10:06:40.933Z,15.00
2023-04-02T10:09:59.909Z,14.87
2023-04-02T10:13:08.561Z,15.17
2023-04-02T10:16:25.768Z,15.25
2023-04-02T10:19:42.240Z,14.80
2023-04-02T10:22:51.200Z,14.86
2023-04-02T10:26:08.591Z,14.92
2023-04-02T10:29:25.871Z,14.75
2023-04-02T10:32:30.881Z,14.76
2023-04-02T10:36:05.352Z,15.55
2023-04-02T10:39:38.316Z,15.55
2023-04-02T10:43:14.381Z,15.62
2023-04-02T10:46:33.498Z,15.85
2023-04-02T10:49:49.500Z,15.76
2023-04-02T10:53:03.837Z,16.58
2023-04-02T10:56:10.723Z,16.43
2023-04-02T10:59:28.070Z,17.41
2023-04-02T11:02:44.474Z,17.30
2023-04-02T11:05:52.765Z,18.84
2023-04-02T11:09:05.700Z,19.68
2023-04-02T11:12:24.637Z,19.93
2023-04-02T11:15:31.108Z,18.93
2023-04-02T11:18:39.030Z,17.55
2023-04-02T11:21:57.882Z,18.46
2023-04-02T11:25:05.237Z,18.59
2023-04-02T11:28:17.201Z,18.41
2023-04-02T11:31:23.126Z,18.73
2023-04-02T11:34:56.380Z,18.60
2023-04-02T11:38:11.617Z,21.11
2023-04-02T11:41:37.395Z,24.16
2023-04-02T11:44:44.113Z,24.71
2023-04-02T11:48:01.321Z,25.18
2023-04-02T11:51:24.216Z,25.53
2023-04-02T11:54:38.197Z,24.49
2023-04-02T11:57:57.982Z,24.87
2023-04-02T12:01:02.834Z,24.09
2023-04-02T12:04:13.133Z,24.38
2023-04-02T12:07:28.077Z,22.18
2023-04-02T12:10:36.368Z,24.53
2023-04-02T12:13:43.023Z,24.75
2023-04-02T12:16:49.583Z,24.24
2023-04-02T12:19:56.958Z,26.18
2023-04-02T12:23:04.195Z,26.36
2023-04-02T12:26:27.636Z,26.98
2023-04-02T12:29:35.702Z,25.34
2023-04-02T12:32:42.624Z,26.55
2023-04-02T12:35:57.183Z,26.28
2023-04-02T12:39:03.318Z,23.80
2023-04-02T12:42:27.306Z,21.08
2023-04-02T12:45:36.374Z,23.11
2023-04-02T12:48:43.441Z,23.18
2023-04-02T12:51:51.338Z,24.42
2023-04-02T12:55:01.277Z,25.21
2023-04-02T12:58:26.845Z,23.24
2023-04-02T13:01:35.809Z,21.08
2023-04-02T13:04:54.467Z,23.24
2023-04-02T13:08:01.386Z,25.74
2023-04-02T13:11:07.371Z,25.04
2023-04-02T13:14:19.844Z,24.99
2023-04-02T13:17:39.064Z,23.44
2023-04-02T13:21:00.621Z,26.73
2023-04-02T13:24:06.358Z,25.37
2023-04-02T13:27:13.991Z,24.47
2023-04-02T13:30:24.014Z,26.65
2023-04-02T13:33:33.710Z,28.50
2023-04-02T13:36:39.233Z,26.15
2023-04-02T13:39:45.581Z,25.64
2023-04-02T13:42:50.687Z,24.32
2023-04-02T13:45:55.888Z,21.16
2023-04-02T13:49:01.255Z,24.01
2023-04-02T13:52:15.613Z,26.04
2023-04-02T13:55:28.544Z,25.68
2023-04-02T13:58:36.846Z,25.85
2023-04-02T14:01:45.109Z,26.35
2023-04-02T14:04:55.836Z,27.29
2023-04-02T14:08:01.528Z,26.63
2023-04-02T14:11:29.168Z,25.28
2023-04-02T14:14:48.154Z,23.34
2023-04-02T14:18:11.698Z,24.79
2023-04-02T14:21:34.224Z,22.62
2023-04-02T14:24:49.457Z,20.96
2023-04-02T14:28:02.195Z,18.66
2023-04-02T14:31:19.984Z,18.41
2023-04-02T14:34:52.119Z,17.51
2023-04-02T14:38:01.610Z,16.25
2023-04-02T14:41:27.138Z,16.15
2023-04-02T14:44:37.421Z,16.08
2023-04-02T14:47:49.804Z,16.49
2023-04-02T14:50:59.026Z,15.49
2023-04-02T14:54:07.176Z,14.76
2023-04-02T14:57:13.148Z,14.28
2023-04-02T15:00:29.664Z,13.99
2023-04-02T15:03:46.201Z,13.56
2023-04-02T15:06:54.313Z,12.95
2023-04-02T15:10:20.963Z,12.70
2023-04-02T15:13:29.451Z,12.36
2023-04-02T15:16:37.258Z,12.22
2023-04-02T15:19:42.779Z,11.94
2023-04-02T15:23:06.851Z,11.87
2023-04-02T15:26:13.228Z,11.48
2023-04-02T15:29:42.120Z,10.55
2023-04-02T15:32:50.174Z,10.12
2023-04-02T15:36:14.392Z,9.86
2023-04-02T15:39:52.190Z,9.61
2023-04-02T15:42:58.997Z,9.71
2023-04-02T15:46:11.097Z,9.64
2023-04-02T15:49:43.122Z,9.49
2023-04-02T15:53:04.401Z,9.47
2023-04-02T15:56:17.816Z,9.56
2023-04-02T15:59:51.179Z,9.87
2023-04-02T16:03:19.469Z,10.04
2023-04-02T16:06:30.235Z,10.20
2023-04-02T16:09:46.718Z,10.35
2023-04-02T16:12:55.062Z,10.73
2023-04-02T16:16:08.613Z,11.09
2023-04-02T16:19:34.009Z,11.06
2023-04-02T16:25:58.183Z,11.36
2023-04-02T16:29:19.716Z,11.18
2023-04-02T16:32:27.321Z,11.09
2023-04-02T16:35:47.092Z,11.13
2023-04-02T16:39:17.008Z,11.32
2023-04-02T16:42:32.125Z,11.31
2023-04-02T16:45:44.563Z,11.38
2023-04-02T16:48:55.707Z,11.36
2023-04-02T16:52:16.791Z,11.35
2023-04-02T16:55:33.198Z,11.06
2023-04-02T16:58:49.731Z,10.87
2023-04-02T17:02:10.744Z,10.82
2023-04-02T17:05:22.933Z,10.65
2023-04-02T17:08:32.117Z,10.61
2023-04-02T17:11:49.467Z,10.51
2023-04-02T17:15:02.374Z,10.48
2023-04-02T17:18:17.578Z,10.80
2023-04-02T17:21:27.587Z,10.84
2023-04-02T17:24:43.636Z,10.83
2023-04-02T17:27:52.374Z,10.78
2023-04-02T17:30:59.805Z,10.67
2023-04-02T17:34:14.125Z,10.57
2023-04-02T17:37:28.320Z,10.54
2023-04-02T17:40:40.471Z,10.39
2023-04-02T17:43:52.224Z,10.26
2023-04-02T17:47:05.485Z,10.08
2023-04-02T17:50:36.570Z,9.97
2023-04-02T17:53:48.533Z,9.86
2023-04-02T17:57:13.911Z,9.73
2023-04-02T18:00:38.446Z,9.63
2023-04-02T18:04:02.501Z,9.49
2023-04-02T18:07:20.014Z,9.40
2023-04-02T18:10:44.301Z,9.32
2023-04-02T18:13:55.763Z,9.19
2023-04-02T18:17:08.455Z,9.09
2023-04-02T18:20:36.134Z,9.00
2023-04-02T18:23:44.637Z,8.91
2023-04-02T18:26:56.118Z,8.84
2023-04-02T18:30:14.035Z,8.77
2023-04-02T18:33:35.398Z,8.70
2023-04-02T18:37:00.148Z,8.62
2023-04-02T18:40:24.516Z,8.50
2023-04-02T18:43:33.763Z,8.48
2023-04-02T18:46:53.907Z,8.50
2023-04-02T18:50:18.800Z,8.48
2023-04-02T18:53:26.074Z,8.44
2023-04-02T18:56:32.593Z,8.37
2023-04-02T18:59:42.230Z,8.39
2023-04-02T19:02:52.839Z,8.39
2023-04-02T19:06:02.708Z,8.31
2023-04-02T19:09:18.081Z,8.19
2023-04-02T19:12:24.689Z,8.07
2023-04-02T19:15:38.584Z,8.05
2023-04-02T19:18:52.036Z,7.96
2023-04-02T19:22:31.140Z,7.92
2023-04-02T19:26:05.944Z,7.80
2023-04-02T19:29:12.264Z,7.69
2023-04-02T19:32:33.964Z,7.64
2023-04-02T19:35:42.255Z,7.57
2023-04-02T19:39:01.492Z,7.45
2023-04-02T19:42:25.013Z,7.38
2023-04-02T22:45:07.984Z,6.85
2023-04-02T22:48:11.311Z,6.85
2023-04-02T22:51:16.111Z,6.33
2023-04-02T22:54:18.849Z,6.23
2023-04-02T22:57:21.544Z,6.29
2023-04-02T23:00:25.093Z,6.32
2023-04-02T23:03:27.641Z,6.35
2023-04-02T23:06:31.144Z,6.31
2023-04-02T23:09:33.633Z,6.20
2023-04-02T23:12:36.612Z,6.21
2023-04-02T23:15:39.110Z,6.22
2023-04-02T23:18:48.046Z,6.20
2023-04-02T23:21:51.575Z,6.19
2023-04-02T23:24:54.592Z,6.16
2023-04-02T23:27:57.127Z,6.15
2023-04-02T23:31:01.634Z,6.12
2023-04-02T23:34:04.504Z,6.13
2023-04-02T23:37:07.344Z,6.09
2023-04-02T23:40:10.330Z,6.00
2023-04-02T23:43:13.106Z,6.07
2023-04-02T23:46:15.803Z,5.99
2023-04-02T23:49:19.154Z,6.07
2023-04-02T23:52:21.618Z,6.01
2023-04-02T23:55:25.096Z,5.96
2023-04-02T23:58:27.639Z,5.84
